Garryowen, MT (59031)

10:45 PM MDT on April 18, 2015 (GMT -0600)
RAWS | | Change Station
CLOSE
Current Station
Personal Weather Station
Location: Crow Agency, MT
Elevation: 3196 ft
Nearby Weather Stations

Elev 3196 ft 45.57 °N, 107.44 °W | Updated 46 minutes ago

Mostly Cloudy
Mostly Cloudy
42 °F
Feels Like 42 °F
N
2
Wind Variable Wind from SW
Gusts 7.0 mph

Today
High -- | Low -- °F
--% Chance of Precip.
Yesterday
High -- | Low -- °F
Precip. -- in
6:18 AM 7:58 PM
New Moon, 0% visible
Pressure 30.23 in
Visibility 10.0 miles
Clouds Overcast 5500 ft
Windchill 42 °F
Dew Point 30 °F
Humidity 62%
Rainfall in
Snow Depth Not available.
UV 0 out of 12
Pollen 9.80 out of 12
Air Quality Not available.
Flu Activity Regional
METAR KSHR 190353Z AUTO 30013KT 10SM OVC055 05/00 A3021 RMK AO2 PK WND 33026/0309 SLP235 T00500000

More Conditions Fewer Conditions

Pressure 30.23 in
Visibility 10.0 miles
Clouds Overcast 5500 ft
Windchill 42 °F
Dew Point 30 °F
Humidity 62%
Rainfall in
Snow Depth Not available.
UV 0 out of 12
Pollen 9.80 out of 12
Air Quality Not available.
Flu Activity Regional
METAR KSHR 190353Z AUTO 30013KT 10SM OVC055 05/00 A3021 RMK AO2 PK WND 33026/0309 SLP235 T00500000

More Conditions Fewer Conditions

10-Day Weather Forecast

Almanac

Astronomy

Apr. 18, 2015 Rise Set
Actual Time
Civil Twilight
Nautical Twilight
Astronomical Twilight
Moon
Length of Visible Light
Length of Day
Tomorrow will be .
, % of the Moon is Illuminated

Today's Extremes

State Highs State Lows

Community

WunderPhotos

Upload Photos

1,814,723 photos uploaded!

WunderBlogs® & News

Nearby

Air Quality

  Air Quality AQ Index Pollutant
Not available.

Snow Depth

Station Depth Elevation

Earthquake Activity

City Distance Mag. Time & Date
Minimum magnitude displayed is 2.5.

Coastal Water Temperatures

Place Temperature

Stations

Nearby Weather Stations

Station Location Temp. Windchill Dew Point Humidity Wind Precip. Elev Updated Type